createdAt,value
2018-05-15T00:00:48.693Z,19.31
2018-05-15T00:03:16.942Z,19.31
2018-05-15T00:05:45.375Z,19.18
2018-05-15T00:08:14.029Z,19.14
2018-05-15T00:10:42.509Z,19.20
2018-05-15T00:13:10.439Z,19.09
2018-05-15T00:15:38.451Z,18.96
2018-05-15T00:18:06.383Z,18.91
2018-05-15T00:20:34.262Z,18.98
2018-05-15T00:23:02.256Z,19.05
2018-05-15T00:25:30.634Z,19.02
2018-05-15T00:27:59.044Z,18.97
2018-05-15T00:30:27.678Z,18.34
2018-05-15T00:32:56.078Z,19.08
2018-05-15T00:35:24.285Z,18.92
2018-05-15T00:37:52.741Z,18.83
2018-05-15T00:40:20.943Z,18.94
2018-05-15T00:42:49.605Z,18.88
2018-05-15T00:45:17.929Z,18.89
2018-05-15T00:47:46.259Z,18.19
2018-05-15T00:50:14.583Z,17.59
2018-05-15T00:52:42.783Z,17.64
2018-05-15T00:55:23.320Z,18.09
2018-05-15T00:57:51.641Z,18.09
2018-05-15T01:00:20.756Z,17.72
2018-05-15T01:02:49.306Z,18.02
2018-05-15T01:05:17.853Z,18.27
2018-05-15T01:07:46.367Z,18.35
2018-05-15T01:10:14.852Z,18.42
2018-05-15T01:12:43.147Z,18.32
2018-05-15T01:15:11.504Z,18.35
2018-05-15T01:17:40.197Z,18.32
2018-05-15T01:20:08.975Z,18.36
2018-05-15T01:22:37.467Z,18.38
2018-05-15T01:25:05.739Z,18.09
2018-05-15T01:27:33.966Z,17.33
2018-05-15T01:30:02.281Z,17.58
2018-05-15T01:32:30.467Z,17.97
2018-05-15T01:34:58.947Z,18.16
2018-05-15T01:37:27.280Z,18.29
2018-05-15T01:39:55.635Z,17.15
2018-05-15T01:42:24.176Z,18.16
2018-05-15T01:44:52.502Z,17.91
2018-05-15T01:47:21.206Z,17.89
2018-05-15T01:49:49.718Z,18.15
2018-05-15T01:52:19.014Z,18.05
2018-05-15T01:54:47.874Z,18.14
2018-05-15T01:57:16.432Z,17.52
2018-05-15T01:59:45.195Z,17.63
2018-05-15T02:02:13.441Z,17.93
2018-05-15T02:04:41.639Z,18.07
2018-05-15T02:07:10.097Z,18.08
2018-05-15T02:09:38.403Z,18.11
2018-05-15T02:12:06.721Z,18.06
2018-05-15T02:14:35.143Z,18.00
2018-05-15T02:17:03.601Z,17.50
2018-05-15T02:19:31.807Z,16.66
2018-05-15T02:22:00.167Z,17.04
2018-05-15T02:24:28.383Z,17.46
2018-05-15T02:26:56.922Z,17.62
2018-05-15T02:29:25.262Z,17.65
2018-05-15T02:31:53.364Z,17.79
2018-05-15T02:34:21.952Z,17.90
2018-05-15T02:36:50.465Z,17.81
2018-05-15T02:39:18.928Z,17.82
2018-05-15T02:41:47.178Z,17.43
2018-05-15T02:44:15.378Z,17.37
2018-05-15T02:46:44.037Z,17.56
2018-05-15T02:49:12.225Z,17.75
2018-05-15T02:51:40.694Z,17.65
2018-05-15T02:54:09.276Z,17.74
2018-05-15T02:56:37.568Z,17.75
2018-05-15T02:59:05.938Z,17.74
2018-05-15T03:01:34.035Z,16.61
2018-05-15T03:04:02.426Z,16.73
2018-05-15T03:06:30.757Z,17.20
2018-05-15T03:08:59.139Z,17.47
2018-05-15T03:11:27.742Z,17.54
2018-05-15T03:13:56.225Z,17.56
2018-05-15T03:16:24.759Z,17.51
2018-05-15T03:18:53.183Z,17.37
2018-05-15T03:21:21.654Z,17.48
2018-05-15T03:23:50.239Z,17.51
2018-05-15T03:26:18.738Z,17.57
2018-05-15T03:28:47.015Z,17.62
2018-05-15T03:31:15.276Z,17.51
2018-05-15T03:33:43.843Z,17.58
2018-05-15T03:36:12.286Z,17.70
2018-05-15T03:38:40.823Z,17.69
2018-05-15T03:41:09.591Z,17.75
2018-05-15T03:43:37.934Z,17.57
2018-05-15T03:46:06.149Z,17.62
2018-05-15T03:48:34.450Z,17.69
2018-05-15T03:51:02.804Z,17.70
2018-05-15T03:53:31.071Z,17.81
2018-05-15T03:55:59.054Z,17.92
2018-05-15T03:58:27.003Z,17.94
2018-05-15T04:01:06.780Z,17.96
2018-05-15T04:03:46.677Z,17.92
2018-05-15T04:09:26.913Z,18.06
2018-05-15T04:11:54.967Z,18.04
2018-05-15T04:14:23.005Z,18.10
2018-05-15T04:16:50.962Z,18.13
2018-05-15T04:19:18.948Z,17.67
2018-05-15T04:21:46.942Z,18.16
2018-05-15T04:24:14.930Z,18.14
2018-05-15T04:26:42.907Z,18.18
2018-05-15T04:29:10.977Z,17.88
2018-05-15T04:31:39.040Z,17.95
2018-05-15T04:34:07.051Z,17.84
2018-05-15T04:36:35.365Z,18.05
2018-05-15T04:39:03.480Z,17.92
2018-05-15T04:41:31.474Z,17.20
2018-05-15T04:43:59.598Z,17.03
2018-05-15T04:46:27.602Z,17.52
2018-05-15T04:48:55.685Z,17.63
2018-05-15T04:51:23.727Z,17.68
2018-05-15T04:53:51.786Z,17.17
2018-05-15T04:56:19.790Z,16.75
2018-05-15T04:58:47.818Z,17.03
2018-05-15T05:01:15.847Z,17.44
2018-05-15T05:03:43.844Z,17.77
2018-05-15T05:06:11.907Z,16.67
2018-05-15T05:08:39.867Z,16.87
2018-05-15T05:11:07.893Z,17.44
2018-05-15T05:13:35.909Z,17.23
2018-05-15T05:16:03.915Z,17.44
2018-05-15T05:18:31.956Z,17.65
2018-05-15T05:21:00.055Z,17.70
2018-05-15T05:23:28.051Z,17.97
2018-05-15T05:25:56.027Z,18.09
2018-05-15T05:28:24.025Z,18.03
2018-05-15T05:30:52.023Z,18.26
2018-05-15T05:33:20.943Z,19.01
2018-05-15T05:35:49.032Z,19.15
2018-05-15T05:38:17.211Z,18.91
2018-05-15T05:40:45.209Z,19.52
2018-05-15T05:43:13.233Z,19.73
2018-05-15T05:45:41.167Z,19.82
2018-05-15T05:48:09.186Z,19.98
2018-05-15T05:50:37.253Z,19.55
2018-05-15T05:53:05.319Z,19.32
2018-05-15T05:55:33.412Z,19.37
2018-05-15T05:58:01.569Z,19.64
2018-05-15T06:00:29.622Z,20.10
2018-05-15T06:02:57.632Z,20.66
2018-05-15T06:05:25.601Z,20.22
2018-05-15T06:07:53.629Z,20.68
2018-05-15T06:10:21.691Z,20.61
2018-05-15T06:12:49.671Z,21.08
2018-05-15T06:15:17.700Z,20.98
2018-05-15T06:17:45.723Z,21.60
2018-05-15T06:20:13.764Z,21.94
2018-05-15T06:22:41.783Z,21.39
2018-05-15T06:25:09.759Z,20.98
2018-05-15T06:27:37.788Z,21.39
2018-05-15T06:30:05.783Z,21.45
2018-05-15T06:32:33.851Z,20.56
2018-05-15T06:35:01.860Z,21.23
2018-05-15T06:37:29.886Z,21.75
2018-05-15T06:39:58.180Z,22.22
2018-05-15T06:42:26.217Z,22.48
2018-05-15T06:44:54.216Z,23.15
2018-05-15T06:47:26.087Z,23.10
2018-05-15T06:49:54.110Z,23.80
2018-05-15T06:52:22.141Z,23.17
2018-05-15T06:54:50.197Z,24.37
2018-05-15T06:57:18.154Z,23.21
2018-05-15T06:59:46.243Z,23.40
2018-05-15T07:02:14.259Z,23.06
2018-05-15T07:04:42.278Z,23.11
2018-05-15T07:07:10.269Z,24.21
2018-05-15T07:09:38.293Z,25.17
2018-05-15T07:12:06.358Z,25.62
2018-05-15T07:14:34.425Z,25.64
2018-05-15T07:17:02.508Z,25.04
2018-05-15T07:19:30.552Z,24.13
2018-05-15T07:21:58.642Z,24.88
2018-05-15T07:24:26.590Z,25.76
2018-05-15T07:26:54.579Z,26.03
2018-05-15T07:29:22.623Z,25.10
2018-05-15T07:31:50.661Z,24.56
2018-05-15T07:34:18.721Z,25.81
2018-05-15T07:36:46.739Z,26.41
2018-05-15T07:39:14.672Z,26.30
2018-05-15T07:41:43.212Z,26.42
2018-05-15T07:44:11.264Z,26.81
2018-05-15T07:46:39.231Z,25.97
2018-05-15T07:49:07.218Z,26.80
2018-05-15T07:51:35.213Z,26.49
2018-05-15T07:54:03.263Z,26.86
2018-05-15T07:56:31.337Z,27.62
2018-05-15T07:58:59.300Z,27.71
2018-05-15T08:01:27.322Z,28.64
2018-05-15T08:03:55.401Z,28.38
2018-05-15T08:06:23.431Z,28.01
2018-05-15T08:08:51.425Z,27.73
2018-05-15T08:11:19.442Z,27.99
2018-05-15T08:13:47.458Z,28.76
2018-05-15T08:16:15.567Z,29.03
2018-05-15T08:18:43.491Z,29.81
2018-05-15T08:21:11.583Z,29.71
2018-05-15T08:23:39.638Z,30.45
2018-05-15T08:26:07.629Z,29.52
2018-05-15T08:28:35.761Z,29.52
2018-05-15T08:31:03.830Z,28.14
2018-05-15T08:33:31.834Z,27.73
2018-05-15T08:35:59.968Z,27.87
2018-05-15T08:38:28.036Z,28.82
2018-05-15T08:40:56.088Z,29.65
2018-05-15T08:43:24.591Z,30.65
2018-05-15T08:45:52.567Z,30.73
2018-05-15T08:48:21.769Z,29.44
2018-05-15T08:50:49.802Z,29.85
2018-05-15T08:53:17.866Z,31.01
2018-05-15T08:55:45.908Z,31.33
2018-05-15T08:58:13.910Z,30.74
2018-05-15T09:00:41.972Z,31.02
2018-05-15T09:03:10.042Z,31.64
2018-05-15T09:05:38.062Z,31.15
2018-05-15T09:08:06.127Z,30.70
2018-05-15T09:10:34.162Z,29.74
2018-05-15T09:13:03.175Z,30.06
2018-05-15T09:15:31.242Z,31.33
2018-05-15T09:17:59.317Z,29.64
2018-05-15T09:20:27.419Z,30.29
2018-05-15T09:22:55.452Z,30.83
2018-05-15T09:25:23.532Z,30.75
2018-05-15T09:27:51.539Z,30.75
2018-05-15T09:30:19.584Z,31.57
2018-05-15T09:32:47.872Z,31.42
2018-05-15T09:35:15.956Z,31.13
2018-05-15T09:37:43.987Z,30.14
2018-05-15T09:40:12.075Z,30.18
2018-05-15T09:42:40.190Z,31.13
2018-05-15T09:45:08.615Z,31.69
2018-05-15T09:47:36.640Z,32.36
2018-05-15T09:50:04.866Z,32.44
2018-05-15T09:52:32.999Z,31.81
2018-05-15T09:55:01.100Z,33.13
2018-05-15T09:57:32.716Z,32.66
2018-05-15T10:00:00.763Z,31.95
2018-05-15T10:02:28.760Z,33.43
2018-05-15T10:04:56.783Z,33.33
2018-05-15T10:07:24.778Z,33.45
2018-05-15T10:09:53.665Z,31.60
2018-05-15T10:12:21.720Z,31.14
2018-05-15T10:14:50.106Z,32.37
2018-05-15T10:17:18.181Z,32.94
2018-05-15T10:19:46.189Z,33.21
2018-05-15T10:22:14.326Z,33.12
2018-05-15T10:24:42.397Z,32.78
2018-05-15T10:27:10.459Z,31.64
2018-05-15T10:29:38.517Z,33.04
2018-05-15T10:32:06.527Z,32.05
2018-05-15T10:34:34.597Z,30.52
2018-05-15T10:37:02.615Z,30.64
2018-05-15T10:39:30.650Z,31.14
2018-05-15T10:41:58.827Z,29.65
2018-05-15T10:44:26.893Z,30.74
2018-05-15T10:46:55.390Z,30.93
2018-05-15T10:49:23.495Z,32.61
2018-05-15T10:51:51.557Z,33.64
2018-05-15T10:54:19.617Z,33.85
2018-05-15T10:56:47.644Z,34.39
2018-05-15T10:59:15.863Z,35.18
2018-05-15T11:01:43.950Z,34.69
2018-05-15T11:04:16.195Z,33.42
2018-05-15T11:06:44.279Z,33.56
2018-05-15T11:09:12.367Z,32.79
2018-05-15T11:11:40.428Z,31.90
2018-05-15T11:14:08.455Z,31.81
2018-05-15T11:16:36.526Z,32.87
2018-05-15T11:22:23.095Z,33.96
2018-05-15T11:24:51.955Z,33.90
2018-05-15T11:27:20.003Z,33.85
2018-05-15T11:29:49.175Z,33.88
2018-05-15T11:32:17.250Z,33.67
2018-05-15T11:34:45.289Z,33.45
2018-05-15T11:37:13.345Z,31.67
2018-05-15T11:39:41.391Z,31.60
2018-05-15T11:42:09.489Z,32.86
2018-05-15T11:44:37.547Z,31.41
2018-05-15T11:47:05.998Z,31.41
2018-05-15T11:49:37.398Z,29.87
2018-05-15T11:52:13.458Z,30.95
2018-05-15T11:54:43.030Z,31.33
2018-05-15T11:57:13.107Z,31.96
2018-05-15T11:59:41.811Z,31.13
2018-05-15T12:02:09.869Z,30.52
2018-05-15T12:04:37.914Z,31.84
2018-05-15T12:07:05.966Z,30.23
2018-05-15T12:09:34.104Z,30.14
2018-05-15T12:12:02.103Z,29.88
2018-05-15T12:14:30.216Z,30.59
2018-05-15T12:16:58.246Z,31.03
2018-05-15T12:19:26.230Z,30.09
2018-05-15T12:21:54.157Z,29.84
2018-05-15T12:24:22.188Z,29.11
2018-05-15T12:26:50.201Z,30.38
2018-05-15T12:29:18.300Z,29.41
2018-05-15T12:31:46.303Z,29.55
2018-05-15T12:34:14.289Z,29.24
2018-05-15T12:36:42.320Z,29.60
2018-05-15T12:39:10.389Z,29.40
2018-05-15T12:41:38.539Z,29.04
2018-05-15T12:44:06.631Z,29.52
2018-05-15T12:46:34.683Z,29.10
2018-05-15T12:49:03.113Z,29.30
2018-05-15T12:51:31.103Z,30.91
2018-05-15T12:53:59.224Z,30.99
2018-05-15T12:56:27.243Z,31.60
2018-05-15T12:58:55.265Z,31.79
2018-05-15T13:01:23.256Z,31.87
2018-05-15T13:03:51.292Z,30.51
2018-05-15T13:06:19.382Z,30.25
2018-05-15T13:08:47.442Z,30.22
2018-05-15T13:11:15.515Z,30.73
2018-05-15T13:13:43.547Z,30.69
2018-05-15T13:16:11.567Z,30.92
2018-05-15T13:18:39.728Z,31.21
2018-05-15T13:21:07.700Z,30.74
2018-05-15T13:23:35.738Z,30.11
2018-05-15T13:26:03.820Z,30.31
2018-05-15T13:28:31.851Z,31.25
2018-05-15T13:31:00.015Z,30.82
2018-05-15T13:33:28.051Z,29.82
2018-05-15T13:35:56.069Z,29.64
2018-05-15T13:38:24.127Z,28.85
2018-05-15T13:40:52.216Z,27.97
2018-05-15T13:43:20.250Z,28.57
2018-05-15T13:45:48.469Z,28.05
2018-05-15T13:48:16.565Z,28.29
2018-05-15T13:50:44.747Z,28.50
2018-05-15T13:53:12.823Z,28.57
2018-05-15T13:55:40.888Z,28.27
2018-05-15T13:58:08.944Z,27.79
2018-05-15T14:00:37.068Z,27.45
2018-05-15T14:03:05.030Z,27.37
2018-05-15T14:05:33.110Z,27.02
2018-05-15T14:08:01.141Z,26.77
2018-05-15T14:10:29.153Z,26.45
2018-05-15T14:12:57.189Z,25.95
2018-05-15T14:15:25.227Z,24.70
2018-05-15T14:17:53.227Z,23.55
2018-05-15T14:20:21.219Z,23.64
2018-05-15T14:22:49.332Z,23.52
2018-05-15T14:25:17.375Z,23.99
2018-05-15T14:27:45.416Z,23.98
2018-05-15T14:30:13.436Z,23.77
2018-05-15T14:32:41.517Z,24.27
2018-05-15T14:35:09.528Z,24.07
2018-05-15T14:37:37.629Z,23.80
2018-05-15T14:40:05.630Z,24.28
2018-05-15T14:42:45.404Z,24.27
2018-05-15T14:47:43.750Z,23.78
2018-05-15T14:50:11.718Z,24.53
2018-05-15T14:52:41.428Z,24.57
2018-05-15T14:55:12.421Z,24.34
2018-05-15T14:57:40.489Z,24.60
2018-05-15T15:00:08.523Z,24.71
2018-05-15T15:02:36.546Z,24.13
2018-05-15T15:05:04.591Z,24.55
2018-05-15T15:07:32.599Z,25.08
2018-05-15T15:10:00.697Z,24.70
2018-05-15T15:12:28.738Z,24.78
2018-05-15T15:14:56.734Z,24.55
2018-05-15T15:17:24.816Z,24.61
2018-05-15T15:19:52.788Z,24.65
2018-05-15T15:22:20.911Z,24.98
2018-05-15T15:24:48.921Z,25.13
2018-05-15T15:27:16.978Z,24.90
2018-05-15T15:29:44.992Z,24.80
2018-05-15T15:32:13.540Z,24.47
2018-05-15T15:34:41.616Z,24.44
2018-05-15T15:37:09.669Z,24.23
2018-05-15T15:39:37.629Z,23.64
2018-05-15T15:42:05.701Z,23.55
2018-05-15T15:44:33.712Z,23.34
2018-05-15T15:47:01.690Z,23.46
2018-05-15T15:49:29.719Z,23.43
2018-05-15T15:51:57.777Z,23.66
2018-05-15T15:54:26.024Z,23.86
2018-05-15T15:56:54.043Z,24.14
2018-05-15T15:59:22.044Z,24.13
2018-05-15T16:01:50.096Z,24.51
2018-05-15T16:04:18.057Z,24.03
2018-05-15T16:06:46.076Z,25.11
2018-05-15T16:09:14.102Z,25.12
2018-05-15T16:11:42.156Z,24.95
2018-05-15T16:14:10.172Z,24.74
2018-05-15T16:16:38.233Z,24.40
2018-05-15T16:19:06.275Z,24.66
2018-05-15T16:21:34.320Z,24.97
2018-05-15T16:24:02.347Z,24.73
2018-05-15T16:26:30.376Z,25.02
2018-05-15T16:28:58.430Z,24.68
2018-05-15T16:31:26.470Z,24.61
2018-05-15T16:33:54.498Z,24.33
2018-05-15T16:36:22.544Z,23.89
2018-05-15T16:38:50.577Z,23.72
2018-05-15T16:41:18.605Z,23.94
2018-05-15T16:43:46.721Z,23.85
2018-05-15T16:46:14.763Z,23.43
2018-05-15T16:48:42.735Z,23.24
2018-05-15T16:51:10.714Z,22.99
2018-05-15T16:53:38.701Z,23.33
2018-05-15T16:56:07.032Z,23.27
2018-05-15T16:58:35.037Z,23.29
2018-05-15T17:01:03.029Z,23.28
2018-05-15T17:03:30.950Z,22.89
2018-05-15T17:05:58.896Z,22.73
2018-05-15T17:08:26.947Z,23.03
2018-05-15T17:10:54.986Z,23.24
2018-05-15T17:13:22.990Z,23.03
2018-05-15T17:15:50.938Z,23.23
2018-05-15T17:18:18.893Z,22.65
2018-05-15T17:20:46.911Z,22.72
2018-05-15T17:23:14.962Z,22.50
2018-05-15T17:25:42.971Z,22.63
2018-05-15T17:28:10.918Z,22.26
2018-05-15T17:30:38.928Z,22.27
2018-05-15T17:33:06.979Z,22.42
2018-05-15T17:35:34.968Z,22.70
2018-05-15T17:38:03.078Z,22.95
2018-05-15T17:40:31.135Z,22.38
2018-05-15T17:42:59.052Z,22.61
2018-05-15T17:45:27.054Z,22.67
2018-05-15T17:47:54.995Z,22.73
2018-05-15T17:50:22.997Z,22.23
2018-05-15T17:52:51.075Z,22.44
2018-05-15T17:55:19.058Z,22.58
2018-05-15T17:57:47.634Z,22.44
2018-05-15T18:00:15.649Z,22.08
2018-05-15T18:02:43.651Z,22.11
2018-05-15T18:05:11.639Z,22.39
2018-05-15T18:07:39.678Z,22.63
2018-05-15T18:10:07.693Z,22.18
2018-05-15T18:12:35.707Z,22.13
2018-05-15T18:15:03.729Z,22.55
2018-05-15T18:17:31.793Z,22.74
2018-05-15T18:19:59.860Z,22.72
2018-05-15T18:22:27.934Z,22.80
2018-05-15T18:24:55.959Z,22.58
2018-05-15T18:27:24.075Z,22.40
2018-05-15T18:29:52.026Z,21.85
2018-05-15T18:32:20.077Z,21.61
2018-05-15T18:34:48.185Z,21.60
2018-05-15T18:37:16.213Z,21.50
2018-05-15T18:39:44.324Z,21.60
2018-05-15T18:42:12.372Z,21.43
2018-05-15T18:44:40.360Z,21.73
2018-05-15T18:47:08.356Z,21.59
2018-05-15T18:49:36.416Z,21.72
2018-05-15T18:52:04.509Z,21.69
2018-05-15T18:54:32.576Z,21.12
2018-05-15T18:57:00.594Z,21.26
2018-05-15T18:59:28.878Z,21.51
2018-05-15T19:01:56.890Z,21.83
2018-05-15T19:04:24.855Z,22.01
2018-05-15T19:06:52.960Z,21.48
2018-05-15T19:09:20.965Z,21.11
2018-05-15T19:11:49.001Z,21.67
2018-05-15T19:14:16.984Z,21.76
2018-05-15T19:16:45.029Z,21.55
2018-05-15T19:19:13.082Z,21.77
2018-05-15T19:21:41.116Z,21.50
2018-05-15T19:24:09.135Z,21.10
2018-05-15T19:26:37.158Z,20.72
2018-05-15T19:29:05.175Z,20.67
2018-05-15T19:31:38.096Z,20.82
2018-05-15T19:34:11.890Z,21.29
2018-05-15T19:36:45.420Z,21.45
2018-05-15T19:39:13.477Z,21.35
2018-05-15T19:41:41.547Z,20.93
2018-05-15T19:44:10.498Z,20.75
2018-05-15T19:46:38.597Z,20.90
2018-05-15T19:49:06.593Z,20.79
2018-05-15T19:51:34.630Z,20.73
2018-05-15T19:54:02.596Z,20.60
2018-05-15T19:56:30.636Z,20.44
2018-05-15T19:58:58.662Z,20.46
2018-05-15T20:01:26.964Z,20.64
2018-05-15T20:03:55.006Z,20.81
2018-05-15T20:06:23.113Z,21.11
2018-05-15T20:08:51.157Z,20.76
2018-05-15T20:11:19.243Z,20.70
2018-05-15T20:13:47.327Z,21.04
2018-05-15T20:16:15.375Z,20.85
2018-05-15T20:18:43.458Z,20.61
2018-05-15T20:21:11.501Z,20.34
2018-05-15T20:23:39.544Z,20.44
2018-05-15T20:26:07.603Z,20.24
2018-05-15T20:28:35.615Z,20.26
2018-05-15T20:31:03.573Z,20.08
2018-05-15T20:33:31.666Z,20.02
2018-05-15T20:35:59.661Z,20.06
2018-05-15T20:38:27.744Z,20.09
2018-05-15T20:40:55.756Z,20.31
2018-05-15T20:43:23.812Z,20.35
2018-05-15T20:45:51.827Z,20.43
2018-05-15T20:48:19.855Z,20.29
2018-05-15T20:50:47.930Z,20.23
2018-05-15T20:53:15.887Z,20.20
2018-05-15T20:55:43.926Z,20.30
2018-05-15T20:58:11.919Z,19.96
2018-05-15T21:00:40.008Z,19.86
2018-05-15T21:03:08.203Z,19.61
2018-05-15T21:05:36.162Z,19.72
2018-05-15T21:08:04.186Z,19.99
2018-05-15T21:10:32.216Z,20.09
2018-05-15T21:13:00.270Z,19.58
2018-05-15T21:15:28.362Z,19.77
2018-05-15T21:17:56.364Z,19.79
2018-05-15T21:20:24.319Z,19.84
2018-05-15T21:22:52.297Z,20.19
2018-05-15T21:25:20.322Z,19.77
2018-05-15T21:27:49.205Z,19.89
2018-05-15T21:30:17.207Z,20.37
2018-05-15T21:32:45.257Z,20.49
2018-05-15T21:35:13.581Z,20.33
2018-05-15T21:37:41.902Z,20.53
2018-05-15T21:40:09.972Z,20.80
2018-05-15T21:42:38.040Z,20.52
2018-05-15T21:45:06.068Z,20.40
2018-05-15T21:47:34.135Z,20.10
2018-05-15T21:50:02.193Z,19.67
2018-05-15T21:52:30.166Z,19.61
2018-05-15T21:54:58.349Z,19.67
2018-05-15T21:57:26.576Z,20.28
2018-05-15T21:59:54.596Z,20.37
2018-05-15T22:02:22.669Z,20.04
2018-05-15T22:04:51.099Z,19.74
2018-05-15T22:07:19.139Z,19.89
2018-05-15T22:09:47.170Z,19.69
2018-05-15T22:12:26.887Z,20.03
2018-05-15T22:15:06.583Z,19.89
2018-05-15T22:17:46.826Z,20.61
2018-05-15T22:20:26.747Z,20.32
2018-05-15T22:22:54.305Z,20.31
2018-05-15T22:25:22.415Z,20.06
2018-05-15T22:27:50.415Z,20.32
2018-05-15T22:30:18.416Z,20.03
2018-05-15T22:32:46.447Z,20.09
2018-05-15T22:35:14.438Z,19.72
2018-05-15T22:37:42.475Z,19.77
2018-05-15T22:40:10.419Z,19.85
2018-05-15T22:42:38.465Z,20.32
2018-05-15T22:45:06.553Z,20.62
2018-05-15T22:47:34.611Z,20.44
2018-05-15T22:50:02.638Z,20.59
2018-05-15T22:52:33.009Z,20.59
2018-05-15T22:55:00.999Z,20.63
2018-05-15T22:57:29.032Z,20.69
2018-05-15T22:59:57.048Z,20.36
2018-05-15T23:02:25.105Z,19.95
2018-05-15T23:04:53.222Z,19.99
2018-05-15T23:07:21.238Z,20.35
2018-05-15T23:09:49.263Z,20.33
2018-05-15T23:12:17.279Z,20.65
2018-05-15T23:14:45.303Z,20.66
2018-05-15T23:17:13.370Z,19.98
2018-05-15T23:19:41.841Z,20.33
2018-05-15T23:22:10.216Z,20.57
2018-05-15T23:24:38.264Z,20.31
2018-05-15T23:27:06.773Z,20.16
2018-05-15T23:29:35.754Z,20.14
2018-05-15T23:32:04.305Z,20.51
2018-05-15T23:34:33.047Z,19.94
2018-05-15T23:37:01.627Z,19.91
2018-05-15T23:39:30.295Z,19.64
2018-05-15T23:41:59.004Z,20.02
2018-05-15T23:44:27.357Z,20.26
2018-05-15T23:46:55.400Z,19.93
2018-05-15T23:49:23.459Z,20.08
2018-05-15T23:51:51.771Z,19.77
2018-05-15T23:54:20.241Z,20.13
2018-05-15T23:56:48.625Z,20.08
2018-05-15T23:59:16.921Z,19.99
